SALINA,KS (SLN) ASOS reports gust of 52 knots (59.8 mph) from S @ 2331Z -- KSLN 202331Z 18034G52KT 1 3/4SM +TSRA FEW047 BKN070 OVC110 26/22 A2969 RMK